• Join FlightAware (Why Join?)
  • Login
  • US Flag 
05:10PM EDT


 

Airport Tracker/Info


-or-


 

Live Flight TrackerFlight Track Log ✈ N42HN ✈ 27-Jun-2013 ✈ KTPA - KPDK

Flight Track Log - Related Links

Times and Time Zones

All times are in EDT time to prevent confusion due to time zone crossing. See the N42HN flight status page for this flight to view local times or setup timezone preferences in your user account.

Time Position Orientation Groundspeed Altitude Reporting Facility
EDT Latitude Longitude Course Direction KTS MPH feet Rate Location/Type
12:33AM 27.9500 -82.5333 204° Southwest 222 255 1,200  Level Tampa TRACON
12:34AM 27.9167 -82.5500 204° Southwest 225 259 4,700 3,600 Climbing Tampa TRACON
12:37AM 28.0142 -82.6692 313° West 222 255 13,500 3,180 Climbing Jacksonville Center
12:38AM 28.1081 -82.6878 350° North 274 315 15,800 2,280 Climbing Jacksonville Center
12:39AM 28.2061 -82.7158 346° North 325 374 18,100 2,100 Climbing Jacksonville Center
12:40AM 28.3125 -82.7417 348° North 359 413 20,100 2,100 Climbing Jacksonville Center
12:41AM 28.4211 -82.7722 346° North 381 438 22,300 1,800 Climbing Jacksonville Center
12:42AM 28.5317 -82.8006 347° North 398 458 23,700 1,560 Climbing Jacksonville Center
12:43AM 28.6444 -82.8286 348° North 403 464 25,500 1,560 Climbing Jacksonville Center
12:44AM 28.7572 -82.8547 349° North 408 470 26,900 1,200 Climbing Jacksonville Center
12:45AM 28.8700 -82.8831 348° North 413 475 28,000 1,080 Climbing Jacksonville Center
12:46AM 28.9825 -82.9186 345° North 413 475 29,100 1,200 Climbing Jacksonville Center
12:47AM 29.1017 -82.9447 349° North 413 475 30,500 1,140 Climbing Jacksonville Center
12:48AM 29.2122 -82.9806 344° North 413 475 31,400 840 Climbing Jacksonville Center
12:49AM 29.3311 -83.0069 349° North 418 481 32,200 960 Climbing Jacksonville Center
12:50AM 29.4458 -83.0428 345° North 418 481 33,400 1,140 Climbing Jacksonville Center
12:51AM 29.5628 -83.0739 347° North 423 487 34,500 1,020 Climbing Jacksonville Center
12:52AM 29.6733 -83.1100 344° North 423 487 35,500 720 Climbing Jacksonville Center
12:53AM 29.7922 -83.1367 349° North 418 481 36,000 240 Climbing Jacksonville Center
12:54AM 29.9050 -83.1681 346° North 418 481 36,000  Level Jacksonville Center
12:55AM 30.0239 -83.1997 347° North 418 481 36,000  Level Jacksonville Center
12:56AM 30.1261 -83.2264 347° North 418 481 36,000  Level Jacksonville Center
12:57AM 30.2389 -83.2581 346° North 418 481 36,000  Level Jacksonville Center
12:58AM 30.3556 -83.2897 347° North 418 481 36,000  Level Jacksonville Center
12:59AM 30.4683 -83.3192 347° North 412 474 36,000  Level Jacksonville Center
01:00AM 30.5808 -83.3533 345° North 412 474 36,000  Level Jacksonville Center
01:01AM 30.6978 -83.3831 348° North 412 474 36,000  Level Jacksonville Center
01:02AM 30.8125 -83.4175 346° North 418 481 36,000  Level Jacksonville Center
01:03AM 30.9250 -83.4494 346° North 413 475 36,000  Level Jacksonville Center
01:05AM 31.2217 -83.5339 346° North 418 481 36,000  Level Atlanta Center
01:06AM 31.3367 -83.5647 347° North 413 475 36,000  Level Atlanta Center
01:07AM 31.4494 -83.5983 346° North 413 475 36,000  Level Atlanta Center
01:08AM 31.5622 -83.6269 348° North 413 475 36,000  Level Atlanta Center
01:09AM 31.6814 -83.6606 347° North 413 475 36,000 -180 Level Atlanta Center
01:10AM 31.7919 -83.6944 345° North 418 481 35,700 -1,500 Descending Atlanta Center
01:11AM 31.9089 -83.7258 347° North 418 481 33,100 -2,460 Descending Atlanta Center
01:12AM 32.0114 -83.7597 344° North 418 481 30,800 -2,160 Descending Atlanta Center
01:13AM 32.1303 -83.7886 348° North 418 481 28,800 -1,920 Descending Atlanta Center
01:14AM 32.2433 -83.8400 339° North 418 481 27,000 -1,920 Descending Atlanta Center
01:15AM 32.3414 -83.9208 325° Northwest 423 487 25,000 -1,980 Descending Atlanta Center
01:16AM 32.4436 -84.0019 326° Northwest 428 493 23,100 -1,800 Descending Atlanta Center
01:17AM 32.5461 -84.0586 335° Northwest 420 483 21,400 -1,800 Descending Atlanta Center
01:18AM 32.6400 -84.1128 334° Northwest 395 455 19,500 -1,980 Descending Atlanta Center
01:19AM 32.7400 -84.1647 336° Northwest 370 426 17,500 -1,800 Descending Atlanta Center
01:20AM 32.8319 -84.1922 346° North 355 409 15,900 -1,260 Descending Atlanta Center
01:21AM 32.9175 -84.2294 340° North 330 380 15,000 -480 Descending Atlanta Center
01:22AM 32.9944 -84.2742 334° Northwest 309 356 15,000 -720 Level Atlanta Center
01:23AM 33.0822 -84.2842 355° North 309 356 13,600 -1,680 Descending Atlanta Center
01:24AM 33.1678 -84.2819 North 303 349 11,700 -1,800 Descending Atlanta Center
01:25AM 33.2492 -84.2822 360° North 298 343 10,000 -1,560 Descending Atlanta Center
01:26AM 33.3203 -84.2875 356° North 274 315 8,600 -1,560 Descending Atlanta Center
01:27AM 33.3892 -84.2875 360° North 244 281 6,900 -1,800 Descending Atlanta Center
01:28AM 33.4558 -84.2903 358° North 239 275 5,100 -1,500 Descending Atlanta Center
01:29AM 33.5142 -84.2931 358° North 225 259 4,000 -480 Descending Atlanta Center
01:31AM 33.6000 -84.3000 356° North 202 232 4,000 -360 Level Atlanta TRACON
01:32AM 33.6500 -84.3000 360° North 221 254 3,200 -540 Descending Atlanta TRACON
01:33AM 33.7167 -84.3000 360° North 202 232 3,000 -180 Descending Atlanta TRACON
01:34AM 33.7667 -84.3000 360° North 193 222 2,900 -180 Descending Atlanta TRACON
01:35AM 33.8167 -84.3000 360° North 187 215 2,700 -120 Descending Atlanta TRACON
01:36AM 33.8667 -84.2667 29° Northeast 184 212 2,700 -300 Level Atlanta TRACON
01:37AM 33.9000 -84.2667 360° North 184 212 2,100 -600 Descending Atlanta TRACON
01:39AM 33.8667 -84.3000 220° Southwest  Level FlightAware Approximate